Airport View

Enter AWOS ICAO identifier for current METAR.

ex. KFNL

KMLT 080753Z AUTO 00000KT 10SM CLR M05/M07 A2967 RMK AO2 SLP058 T10501067

8 Apr 2020 08:53

Frequency: 135.225

Phone: 207-723-8396

Other Area AWOS: K3B1 - KGNR - KHUL - KBGR

TAF KHUL 080523Z 0806/0906 00000KT P6SM FEW060 FM081100 35003KT P6SM FEW090 FM090200 00000KT P6SM FEW100